Terminal Aerodrome Forecast
Issued by NWS

Home | Current Version | Previous Version | Text Only | Print | Product List | Glossary On
Versions: 1 2 3 4 5 6 7 8 9 10 11 12 13 14 15 16 17
354
FTUS45 KFGZ 162333
TAFSEZ
TAF
KSEZ 162333Z 1700/1724 15007KT P6SM BKN250
     FM170300 04008KT P6SM SCT150 BKN200
     FM171700 08010G15KT P6SM SCT070 BKN150 OVC200=

USA.gov is the U.S. government's official web portal to all federal, state and local government web resources and services.